createdAt,value
2017-09-16T00:00:42.917Z,99.90
2017-09-16T00:03:11.202Z,99.90
2017-09-16T00:05:40.395Z,99.90
2017-09-16T00:08:09.706Z,99.90
2017-09-16T00:10:39.075Z,99.90
2017-09-16T00:13:07.447Z,99.90
2017-09-16T00:15:35.731Z,99.90
2017-09-16T00:18:04.012Z,99.90
2017-09-16T00:20:32.303Z,99.90
2017-09-16T00:23:00.918Z,99.90
2017-09-16T00:25:29.214Z,99.90
2017-09-16T00:27:58.275Z,99.90
2017-09-16T00:30:26.574Z,99.90
2017-09-16T00:32:54.852Z,99.90
2017-09-16T00:35:23.586Z,99.90
2017-09-16T00:37:52.611Z,99.90
2017-09-16T00:40:20.904Z,99.90
2017-09-16T00:42:49.211Z,99.90
2017-09-16T00:45:18.282Z,99.90
2017-09-16T00:47:46.863Z,99.90
2017-09-16T00:50:15.171Z,99.90
2017-09-16T00:52:43.484Z,99.90
2017-09-16T00:55:11.768Z,99.90
2017-09-16T00:57:40.833Z,99.90
2017-09-16T01:00:09.426Z,99.90
2017-09-16T01:02:37.702Z,99.90
2017-09-16T01:05:06.691Z,99.90
2017-09-16T01:07:35.285Z,99.90
2017-09-16T01:10:04.527Z,99.90
2017-09-16T01:12:33.564Z,99.90
2017-09-16T01:15:02.158Z,99.90
2017-09-16T01:17:31.262Z,99.90
2017-09-16T01:19:59.551Z,99.90
2017-09-16T01:22:28.140Z,99.90
2017-09-16T01:24:56.450Z,99.90
2017-09-16T01:27:24.722Z,99.90
2017-09-16T01:29:53.392Z,99.90
2017-09-16T01:32:21.675Z,99.90
2017-09-16T01:34:49.990Z,99.90
2017-09-16T01:37:18.335Z,99.90
2017-09-16T01:39:46.632Z,99.90
2017-09-16T01:42:15.321Z,99.90
2017-09-16T01:44:43.588Z,99.90
2017-09-16T01:47:11.858Z,99.90
2017-09-16T01:49:40.177Z,99.90
2017-09-16T01:52:09.943Z,99.90
2017-09-16T01:54:38.502Z,99.90
2017-09-16T01:57:07.585Z,99.90
2017-09-16T01:59:35.883Z,99.90
2017-09-16T02:02:05.972Z,99.90
2017-09-16T02:04:34.283Z,99.90
2017-09-16T02:07:03.678Z,99.90
2017-09-16T02:09:31.930Z,99.90
2017-09-16T02:12:00.218Z,99.90
2017-09-16T02:14:28.785Z,99.90
2017-09-16T02:16:57.075Z,99.90
2017-09-16T02:19:25.346Z,99.90
2017-09-16T02:21:53.643Z,99.90
2017-09-16T02:24:21.889Z,99.90
2017-09-16T02:26:50.590Z,99.90
2017-09-16T02:29:18.936Z,99.90
2017-09-16T02:31:47.170Z,99.90
2017-09-16T02:34:15.504Z,99.90
2017-09-16T02:36:44.016Z,99.90
2017-09-16T02:39:12.667Z,99.90
2017-09-16T02:41:40.942Z,99.90
2017-09-16T02:44:09.294Z,99.90
2017-09-16T02:46:37.858Z,99.90
2017-09-16T02:49:06.183Z,99.90
2017-09-16T02:51:34.494Z,99.90
2017-09-16T02:54:04.542Z,99.90
2017-09-16T02:56:32.807Z,99.90
2017-09-16T02:59:02.629Z,99.90
2017-09-16T03:01:31.987Z,99.90
2017-09-16T03:04:00.276Z,99.90
2017-09-16T03:06:28.549Z,99.90
2017-09-16T03:08:57.038Z,99.90
2017-09-16T03:11:25.316Z,99.90
2017-09-16T03:13:53.906Z,99.90
2017-09-16T03:16:22.216Z,99.90
2017-09-16T03:18:50.449Z,99.90
2017-09-16T03:21:18.736Z,99.90
2017-09-16T03:23:47.031Z,99.90
2017-09-16T03:26:15.596Z,99.90
2017-09-16T03:28:43.888Z,99.90
2017-09-16T03:31:12.167Z,99.90
2017-09-16T03:33:40.488Z,99.90
2017-09-16T03:36:10.271Z,99.90
2017-09-16T03:38:38.850Z,99.90
2017-09-16T03:41:07.157Z,99.90
2017-09-16T03:43:35.515Z,99.90
2017-09-16T03:46:03.819Z,99.90
2017-09-16T03:48:32.106Z,99.90
2017-09-16T03:51:01.721Z,99.90
2017-09-16T03:53:31.691Z,99.90
2017-09-16T03:56:00.079Z,99.90
2017-09-16T03:58:29.657Z,99.90
2017-09-16T04:00:58.708Z,99.90
2017-09-16T04:03:27.017Z,99.90
2017-09-16T04:05:55.666Z,99.90
2017-09-16T04:08:23.965Z,99.90
2017-09-16T04:10:52.306Z,99.90
2017-09-16T04:13:21.444Z,99.90
2017-09-16T04:15:49.831Z,99.90
2017-09-16T04:18:20.657Z,99.90
2017-09-16T04:20:48.958Z,99.90
2017-09-16T04:23:17.243Z,99.90
2017-09-16T04:25:47.480Z,99.90
2017-09-16T04:28:17.488Z,99.90
2017-09-16T04:30:47.410Z,99.90
2017-09-16T04:33:15.704Z,99.90
2017-09-16T04:35:44.362Z,99.90
2017-09-16T04:38:12.963Z,99.90
2017-09-16T04:40:41.802Z,99.90
2017-09-16T04:43:10.868Z,99.90
2017-09-16T04:45:39.459Z,99.90
2017-09-16T04:48:08.527Z,99.90
2017-09-16T04:50:37.488Z,99.90
2017-09-16T04:53:06.142Z,99.90
2017-09-16T04:55:34.480Z,99.90
2017-09-16T04:58:03.575Z,99.90
2017-09-16T05:00:32.250Z,99.90
2017-09-16T05:03:01.095Z,99.90
2017-09-16T05:05:29.375Z,99.90
2017-09-16T05:07:57.664Z,99.90
2017-09-16T05:10:26.743Z,99.90
2017-09-16T05:12:55.322Z,99.90
2017-09-16T05:15:23.631Z,99.90
2017-09-16T05:17:52.455Z,99.90
2017-09-16T05:20:21.823Z,99.90
2017-09-16T05:22:50.123Z,99.90
2017-09-16T05:25:18.418Z,99.90
2017-09-16T05:27:46.694Z,99.90
2017-09-16T05:30:15.009Z,99.90
2017-09-16T05:32:44.386Z,99.90
2017-09-16T05:35:14.180Z,99.90
2017-09-16T05:37:42.502Z,99.90
2017-09-16T05:40:11.855Z,99.90
2017-09-16T05:42:40.160Z,99.90
2017-09-16T05:45:08.473Z,99.90
2017-09-16T05:47:36.820Z,99.90
2017-09-16T05:50:05.140Z,99.90
2017-09-16T05:52:34.516Z,99.90
2017-09-16T05:55:02.803Z,99.90
2017-09-16T05:57:31.188Z,99.90
2017-09-16T06:00:00.180Z,99.90
2017-09-16T06:02:28.476Z,99.90
2017-09-16T06:04:56.780Z,99.90
2017-09-16T06:07:25.100Z,99.90
2017-09-16T06:09:53.396Z,99.90
2017-09-16T06:12:22.687Z,99.90
2017-09-16T06:14:51.022Z,99.90
2017-09-16T06:17:19.768Z,99.90
2017-09-16T06:19:48.474Z,99.90
2017-09-16T06:22:17.577Z,99.90
2017-09-16T06:24:47.698Z,99.90
2017-09-16T06:27:16.594Z,99.90
2017-09-16T06:29:44.876Z,99.90
2017-09-16T06:32:13.450Z,99.90
2017-09-16T06:34:41.768Z,99.90
2017-09-16T06:37:10.076Z,99.90
2017-09-16T06:39:39.647Z,99.90
2017-09-16T06:42:07.933Z,99.90
2017-09-16T06:44:36.217Z,99.90
2017-09-16T06:47:06.226Z,99.90
2017-09-16T06:49:34.503Z,99.90
2017-09-16T06:52:03.123Z,99.90
2017-09-16T06:54:31.436Z,99.90
2017-09-16T06:56:59.852Z,99.90
2017-09-16T06:59:28.446Z,99.90
2017-09-16T07:01:56.749Z,99.90
2017-09-16T07:06:56.030Z,99.90
2017-09-16T07:09:24.319Z,99.90
2017-09-16T07:11:52.651Z,99.90
2017-09-16T07:14:20.919Z,99.90
2017-09-16T07:16:49.390Z,99.90
2017-09-16T07:19:18.078Z,99.90
2017-09-16T07:21:46.366Z,99.90
2017-09-16T07:24:14.670Z,99.90
2017-09-16T09:19:18.597Z,99.90
2017-09-16T09:21:47.639Z,99.90
2017-09-16T09:24:16.241Z,99.90
2017-09-16T09:26:44.518Z,99.90
2017-09-16T09:29:12.813Z,99.90
2017-09-16T09:31:41.413Z,99.90
2017-09-16T09:34:09.703Z,99.90
2017-09-16T09:36:38.305Z,99.90
2017-09-16T09:39:06.567Z,99.90
2017-09-16T09:41:35.606Z,98.70
2017-09-16T09:44:04.981Z,96.30
2017-09-16T09:46:33.288Z,96.30
2017-09-16T09:49:01.572Z,96.50
2017-09-16T09:51:31.727Z,94.80
2017-09-16T09:54:00.052Z,94.70
2017-09-16T09:56:29.966Z,95.00
2017-09-16T09:58:58.408Z,94.10
2017-09-16T10:01:26.703Z,93.10
2017-09-16T10:03:55.327Z,91.10
2017-09-16T10:06:23.612Z,94.00
2017-09-16T10:08:51.899Z,92.30
2017-09-16T10:11:20.582Z,91.50
2017-09-16T10:13:49.104Z,87.20
2017-09-16T10:16:17.393Z,87.80
2017-09-16T10:18:46.007Z,90.80
2017-09-16T10:21:14.298Z,86.20
2017-09-16T10:23:42.738Z,83.20
2017-09-16T10:26:12.086Z,83.80
2017-09-16T10:28:40.375Z,83.70
2017-09-16T10:31:08.652Z,84.90
2017-09-16T10:33:37.248Z,86.50
2017-09-16T10:36:05.525Z,83.70
2017-09-16T10:38:33.843Z,85.60
2017-09-16T10:41:02.918Z,72.80
2017-09-16T10:43:31.243Z,72.60
2017-09-16T10:46:00.583Z,70.60
2017-09-16T10:48:30.863Z,75.80
2017-09-16T10:50:59.926Z,73.80
2017-09-16T10:53:28.233Z,73.90
2017-09-16T10:55:57.282Z,66.30
2017-09-16T10:58:25.968Z,66.10
2017-09-16T11:00:54.278Z,56.90
2017-09-16T11:23:23.344Z,55.90
2017-09-16T11:25:51.616Z,58.30
2017-09-16T11:28:19.928Z,61.70
2017-09-16T11:30:48.976Z,71.40
2017-09-16T11:33:17.592Z,71.30
2017-09-16T11:35:45.896Z,74.50
2017-09-16T11:38:14.189Z,77.10
2017-09-16T11:40:43.548Z,79.20
2017-09-16T11:43:11.865Z,80.00
2017-09-16T12:08:10.091Z,60.50
2017-09-16T12:10:38.701Z,59.80
2017-09-16T12:18:06.894Z,65.80
2017-09-16T12:20:35.162Z,65.90
2017-09-16T12:23:03.453Z,70.10
2017-09-16T12:25:34.545Z,73.30
2017-09-16T12:28:03.223Z,73.60
2017-09-16T12:30:32.382Z,74.50
2017-09-16T12:33:01.632Z,78.60
2017-09-16T12:35:30.213Z,82.00
2017-09-16T12:37:59.091Z,81.80
2017-09-16T12:40:27.382Z,87.30
2017-09-16T12:42:55.955Z,88.00
2017-09-16T12:45:24.240Z,89.80
2017-09-16T12:47:52.524Z,89.60
2017-09-16T12:50:21.111Z,91.40
2017-09-16T12:52:49.430Z,90.10
2017-09-16T12:55:18.922Z,90.40
2017-09-16T12:57:47.214Z,90.60
2017-09-16T13:00:15.523Z,91.20
2017-09-16T13:02:44.885Z,89.30
2017-09-16T13:05:13.179Z,89.30
2017-09-16T13:07:42.991Z,88.80
2017-09-16T13:10:11.625Z,88.80
2017-09-16T13:12:40.680Z,87.50
2017-09-16T13:15:09.180Z,87.40
2017-09-16T13:17:37.763Z,85.40
2017-09-16T13:32:35.915Z,63.10
2017-09-16T13:35:04.500Z,61.00
2017-09-16T13:37:32.779Z,54.90
2017-09-16T13:40:01.052Z,51.00
2017-09-16T13:42:29.639Z,47.70
2017-09-16T13:52:27.734Z,52.00
2017-09-16T13:54:57.112Z,59.10
2017-09-16T13:57:25.429Z,59.00
2017-09-16T13:59:54.472Z,66.30
2017-09-16T14:02:23.067Z,66.30
2017-09-16T14:04:51.351Z,70.30
2017-09-16T14:07:19.928Z,70.90
2017-09-16T14:09:48.232Z,72.30
2017-09-16T14:12:16.517Z,71.00
2017-09-16T14:14:45.093Z,73.00
2017-09-16T14:17:13.423Z,75.40
2017-09-16T14:19:42.494Z,76.70
2017-09-16T14:22:11.059Z,76.70
2017-09-16T14:34:39.707Z,60.00
2017-09-16T14:37:07.992Z,63.70
2017-09-16T14:39:36.278Z,64.70
2017-09-16T14:42:04.834Z,64.00
2017-09-16T14:44:34.193Z,69.40
2017-09-16T14:47:02.803Z,69.30
2017-09-16T14:49:31.724Z,71.20
2017-09-16T14:52:00.004Z,73.70
2017-09-16T14:54:29.075Z,73.20
2017-09-16T15:01:57.280Z,57.10
2017-09-16T15:04:25.619Z,51.30
2017-09-16T15:06:54.652Z,43.90
2017-09-16T15:19:23.095Z,49.10
2017-09-16T15:21:51.713Z,49.40
2017-09-16T16:19:19.215Z,40.60
2017-09-16T16:21:47.489Z,42.70
2017-09-16T16:24:15.780Z,45.30
2017-09-16T16:26:44.067Z,48.60
2017-09-16T16:29:12.666Z,50.50
2017-09-16T16:31:40.940Z,51.00
2017-09-16T16:34:09.228Z,53.50
2017-09-16T16:36:37.812Z,56.50
2017-09-16T16:39:06.105Z,60.80
2017-09-16T16:41:34.388Z,64.10
2017-09-16T16:44:03.203Z,67.70
2017-09-16T16:46:31.483Z,70.60
2017-09-16T16:49:00.603Z,74.20
2017-09-16T16:51:29.664Z,82.80
2017-09-16T16:53:57.977Z,81.80
2017-09-16T16:56:26.540Z,84.90
2017-09-16T16:58:54.807Z,87.30
2017-09-16T17:01:23.110Z,89.10
2017-09-16T17:03:51.414Z,90.90
2017-09-16T17:06:20.488Z,92.40
2017-09-16T17:08:48.788Z,92.40
2017-09-16T17:11:17.435Z,92.90
2017-09-16T17:13:45.737Z,93.40
2017-09-16T17:16:14.311Z,94.00
2017-09-16T17:18:42.576Z,94.70
2017-09-16T17:21:10.852Z,95.30
2017-09-16T17:23:39.487Z,95.80
2017-09-16T17:26:07.774Z,96.20
2017-09-16T17:28:36.824Z,97.30
2017-09-16T17:31:05.450Z,97.30
2017-09-16T17:33:33.740Z,97.50
2017-09-16T17:36:02.263Z,97.70
2017-09-16T17:38:30.564Z,98.10
2017-09-16T17:40:59.742Z,98.50
2017-09-16T17:43:28.398Z,98.80
2017-09-16T17:45:57.545Z,99.00
2017-09-16T17:48:25.843Z,98.90
2017-09-16T17:50:54.464Z,99.70
2017-09-16T17:53:22.743Z,99.90
2017-09-16T17:55:51.846Z,99.90
2017-09-16T17:58:20.530Z,99.90
2017-09-16T18:00:48.826Z,99.90
2017-09-16T18:03:18.404Z,99.90
2017-09-16T18:05:46.765Z,99.90
2017-09-16T18:08:15.050Z,99.90
2017-09-16T18:10:43.643Z,99.90
2017-09-16T18:13:11.918Z,99.90
2017-09-16T18:15:40.287Z,99.90
2017-09-16T18:18:08.604Z,99.90
2017-09-16T18:20:36.913Z,99.90
2017-09-16T18:23:05.619Z,99.90
2017-09-16T18:25:33.880Z,99.90
2017-09-16T18:28:02.202Z,99.90
2017-09-16T18:30:31.663Z,99.90
2017-09-16T18:33:00.286Z,99.90
2017-09-16T18:35:28.610Z,99.90
2017-09-16T18:37:56.956Z,99.90
2017-09-16T18:40:26.755Z,99.90
2017-09-16T18:42:55.307Z,99.90
2017-09-16T18:45:23.618Z,99.90
2017-09-16T18:47:52.297Z,99.90
2017-09-16T18:50:21.915Z,99.90
2017-09-16T18:52:50.179Z,99.90
2017-09-16T18:55:18.499Z,99.90
2017-09-16T18:57:47.134Z,99.90
2017-09-16T19:00:15.471Z,99.90
2017-09-16T19:02:43.792Z,99.90
2017-09-16T19:05:12.119Z,99.90
2017-09-16T19:07:41.494Z,99.90
2017-09-16T19:10:10.058Z,99.90
2017-09-16T19:12:38.377Z,99.90
2017-09-16T19:15:06.674Z,99.90
2017-09-16T19:17:35.270Z,99.90
2017-09-16T19:20:03.581Z,99.90
2017-09-16T19:22:32.730Z,99.90
2017-09-16T19:25:01.354Z,99.90
2017-09-16T19:27:30.431Z,99.90
2017-09-16T19:29:58.998Z,99.90
2017-09-16T19:32:28.050Z,99.90
2017-09-16T19:34:57.100Z,99.90
2017-09-16T19:37:25.698Z,99.90
2017-09-16T19:39:54.029Z,99.90
2017-09-16T19:42:22.356Z,99.90
2017-09-16T19:44:51.060Z,99.90
2017-09-16T19:47:19.355Z,99.90
2017-09-16T19:49:47.678Z,99.90
2017-09-16T19:52:16.772Z,99.90
2017-09-16T19:54:45.110Z,99.90
2017-09-16T19:57:13.808Z,99.90
2017-09-16T19:59:42.395Z,99.90
2017-09-16T20:02:10.679Z,99.90
2017-09-16T20:04:39.797Z,99.90
2017-09-16T20:07:08.897Z,99.90
2017-09-16T20:09:38.274Z,99.90
2017-09-16T20:12:06.624Z,99.90
2017-09-16T20:14:34.967Z,99.90
2017-09-16T20:17:03.265Z,99.90
2017-09-16T20:19:31.552Z,99.90
2017-09-16T20:22:00.216Z,99.90
2017-09-16T20:24:28.499Z,99.90
2017-09-16T20:26:57.559Z,99.90
2017-09-16T20:29:26.177Z,99.90
2017-09-16T20:31:54.505Z,99.90
2017-09-16T20:34:23.539Z,99.90
2017-09-16T20:36:52.217Z,99.90
2017-09-16T20:39:20.527Z,99.90
2017-09-16T20:41:49.155Z,99.90
2017-09-16T20:44:17.475Z,99.90
2017-09-16T20:46:45.803Z,99.90
2017-09-16T20:49:15.133Z,99.90
2017-09-16T20:51:43.405Z,99.90
2017-09-16T20:54:11.736Z,99.90
2017-09-16T20:56:40.331Z,99.90
2017-09-16T20:59:08.630Z,99.90
2017-09-16T21:01:38.547Z,99.90
2017-09-16T21:04:07.247Z,99.90
2017-09-16T21:06:36.273Z,99.90
2017-09-16T21:09:04.560Z,99.90
2017-09-16T21:11:33.222Z,99.90
2017-09-16T21:14:01.548Z,99.90
2017-09-16T21:16:29.859Z,99.90
2017-09-16T21:18:58.462Z,99.90
2017-09-16T21:21:27.551Z,99.90
2017-09-16T21:23:55.877Z,99.90
2017-09-16T21:26:24.192Z,99.90
2017-09-16T21:28:52.528Z,99.90
2017-09-16T21:31:21.185Z,99.90
2017-09-16T21:33:50.182Z,99.90
2017-09-16T21:36:19.133Z,99.90
2017-09-16T21:38:47.579Z,99.90
2017-09-16T21:41:15.862Z,99.90
2017-09-16T21:43:45.386Z,99.90
2017-09-16T21:46:14.801Z,99.90
2017-09-16T21:48:44.524Z,99.90
2017-09-16T21:51:13.570Z,99.90
2017-09-16T21:53:41.876Z,99.90
2017-09-16T21:56:10.183Z,99.90
2017-09-16T21:58:38.506Z,99.90
2017-09-16T22:01:06.783Z,99.90
2017-09-16T22:03:35.175Z,99.90
2017-09-16T22:06:03.465Z,99.90
2017-09-16T22:08:31.795Z,99.90
2017-09-16T22:11:00.836Z,99.90
2017-09-16T22:13:29.124Z,99.90
2017-09-16T22:15:59.039Z,99.90
2017-09-16T22:18:27.344Z,99.90
2017-09-16T22:20:56.412Z,99.90
2017-09-16T22:23:24.719Z,99.90
2017-09-16T22:25:53.053Z,99.90
2017-09-16T22:28:21.426Z,99.90
2017-09-16T22:30:50.484Z,99.90
2017-09-16T22:33:18.806Z,99.90
2017-09-16T22:35:47.153Z,99.90
2017-09-16T22:38:15.463Z,99.90
2017-09-16T22:40:44.545Z,99.90
2017-09-16T22:43:13.139Z,99.90
2017-09-16T22:45:42.784Z,99.90
2017-09-16T22:48:12.543Z,99.90
2017-09-16T22:50:41.505Z,99.90
2017-09-16T22:53:10.112Z,99.90
2017-09-16T22:55:38.391Z,99.90
2017-09-16T22:58:06.718Z,99.90
2017-09-16T23:00:35.076Z,99.90
2017-09-16T23:03:03.653Z,99.90
2017-09-16T23:05:33.483Z,99.90
2017-09-16T23:08:01.772Z,99.90
2017-09-16T23:10:30.138Z,99.90
2017-09-16T23:12:58.467Z,99.90
2017-09-16T23:15:26.792Z,99.90
2017-09-16T23:17:55.171Z,99.90
2017-09-16T23:20:23.462Z,99.90
2017-09-16T23:22:52.584Z,99.90
2017-09-16T23:25:22.528Z,99.90
2017-09-16T23:27:51.651Z,99.90
2017-09-16T23:30:19.939Z,99.90
2017-09-16T23:32:48.209Z,99.90
2017-09-16T23:35:16.561Z,99.90
2017-09-16T23:37:45.609Z,99.90
2017-09-16T23:40:13.904Z,99.90
2017-09-16T23:42:42.206Z,99.90
2017-09-16T23:45:10.952Z,99.90
2017-09-16T23:47:39.243Z,99.90
2017-09-16T23:50:07.570Z,99.90
2017-09-16T23:52:35.855Z,99.90
2017-09-16T23:55:04.184Z,99.90
2017-09-16T23:57:32.479Z,99.90
